Helena, Missouri
Current Conditions -  °F | °C
As of 8:53 PM on Tuesday 21 Oct 2014 (Local Time) from KSTJ Reporting Station
Clear Clear  
Wind Chill: 59°   Ceiling: Unl
Heat Index: 59°   Visibility: 10mi
Dew Point: 42°   Wind: 6mph
Humidity: 53%   Direction: 120°ESE
Pressure: 30.09"   Gusts: NA
Location:  39.91°N, 94.65°W
Report Text: KSTJ 220153Z AUTO 12005KT 10SM CLR 15/06 A3009 RMK AO2 SLP190 T01500056
Loading
Personal Weather Stations






























Interactive Weather Map
Tropical Storm Tracking
New forecast layout! Learn more

10-Day Weather Forecast

Advertisements
Track Severe Weather on mobile